createdAt,value
2018-05-04T00:02:08.926Z,45.00
2018-05-04T00:04:35.079Z,45.10
2018-05-04T00:07:01.223Z,45.30
2018-05-04T00:09:27.370Z,45.30
2018-05-04T00:11:53.550Z,45.40
2018-05-04T00:14:19.730Z,45.80
2018-05-04T00:16:45.933Z,46.00
2018-05-04T00:19:12.840Z,46.10
2018-05-04T00:21:38.983Z,46.10
2018-05-04T00:24:05.167Z,45.90
2018-05-04T00:26:31.346Z,45.70
2018-05-04T00:28:57.537Z,45.90
2018-05-04T00:31:23.717Z,45.90
2018-05-04T00:33:49.921Z,46.20
2018-05-04T00:36:16.074Z,46.10
2018-05-04T00:38:42.239Z,45.90
2018-05-04T00:43:34.126Z,46.00
2018-05-04T00:46:00.279Z,46.10
2018-05-04T00:48:26.455Z,46.20
2018-05-04T00:50:52.621Z,46.40
2018-05-04T00:53:18.825Z,46.40
2018-05-04T00:55:45.717Z,46.50
2018-05-04T00:58:12.591Z,46.40
2018-05-04T01:00:38.845Z,45.80
2018-05-04T01:03:06.549Z,46.40
2018-05-04T01:05:32.707Z,46.30
2018-05-04T01:07:58.899Z,46.30
2018-05-04T01:13:17.873Z,46.00
2018-05-04T01:15:44.049Z,46.20
2018-05-04T01:18:10.223Z,46.60
2018-05-04T01:20:36.392Z,46.60
2018-05-04T01:23:02.606Z,46.60
2018-05-04T01:25:28.750Z,46.30
2018-05-04T01:27:54.915Z,46.90
2018-05-04T01:30:21.073Z,46.80
2018-05-04T01:32:47.965Z,46.80
2018-05-04T01:35:14.103Z,46.80
2018-05-04T01:37:40.250Z,46.70
2018-05-04T01:40:06.411Z,46.80
2018-05-04T01:42:32.575Z,46.50
2018-05-04T01:44:58.735Z,46.60
2018-05-04T01:47:24.879Z,46.50
2018-05-04T01:49:51.018Z,46.80
2018-05-04T01:52:17.159Z,46.80
2018-05-04T01:54:43.315Z,47.00
2018-05-04T01:57:09.447Z,47.00
2018-05-04T01:59:35.614Z,47.00
2018-05-04T02:02:01.793Z,46.70
2018-05-04T02:04:27.964Z,46.70
2018-05-04T02:06:54.115Z,47.30
2018-05-04T02:09:20.272Z,46.90
2018-05-04T02:11:46.422Z,47.10
2018-05-04T02:14:12.587Z,47.20
2018-05-04T02:16:38.818Z,47.00
2018-05-04T02:19:05.041Z,46.80
2018-05-04T02:21:31.948Z,46.50
2018-05-04T02:23:58.144Z,46.60
2018-05-04T02:26:24.322Z,46.30
2018-05-04T02:28:50.504Z,46.70
2018-05-04T02:31:17.403Z,47.60
2018-05-04T02:33:43.646Z,46.90
2018-05-04T02:36:09.812Z,46.90
2018-05-04T02:38:36.735Z,47.60
2018-05-04T02:41:02.897Z,47.70
2018-05-04T02:43:29.042Z,47.80
2018-05-04T02:45:55.238Z,48.10
2018-05-04T02:48:21.387Z,48.30
2018-05-04T02:50:48.282Z,48.00
2018-05-04T02:53:14.431Z,47.90
2018-05-04T02:55:40.582Z,48.20
2018-05-04T02:58:06.735Z,47.90
2018-05-04T03:00:33.636Z,47.60
2018-05-04T03:02:59.786Z,45.50
2018-05-04T03:05:26.023Z,47.90
2018-05-04T03:07:52.181Z,48.00
2018-05-04T03:10:18.363Z,47.90
2018-05-04T03:12:44.515Z,45.60
2018-05-04T03:15:10.683Z,48.50
2018-05-04T03:17:36.863Z,48.80
2018-05-04T03:20:03.095Z,48.50
2018-05-04T03:22:29.277Z,48.90
2018-05-04T03:24:55.436Z,48.80
2018-05-04T03:27:21.622Z,48.90
2018-05-04T03:29:47.787Z,48.90
2018-05-04T03:32:13.939Z,47.00
2018-05-04T03:34:40.082Z,48.50
2018-05-04T03:37:06.229Z,46.70
2018-05-04T03:39:32.380Z,48.50
2018-05-04T03:41:58.551Z,48.30
2018-05-04T03:44:24.705Z,48.20
2018-05-04T03:46:50.887Z,48.40
2018-05-04T03:49:17.084Z,48.10
2018-05-04T03:51:43.221Z,47.70
2018-05-04T03:54:09.404Z,47.90
2018-05-04T03:56:36.302Z,48.00
2018-05-04T04:02:40.899Z,47.40
2018-05-04T04:05:07.043Z,48.10
2018-05-04T04:07:33.175Z,48.50
2018-05-04T04:09:59.346Z,48.90
2018-05-04T04:12:25.505Z,49.60
2018-05-04T04:14:51.649Z,49.20
2018-05-04T04:17:17.817Z,49.00
2018-05-04T04:19:43.975Z,49.00
2018-05-04T04:22:10.898Z,48.60
2018-05-04T04:24:37.103Z,48.50
2018-05-04T04:27:03.286Z,48.60
2018-05-04T04:29:29.476Z,48.20
2018-05-04T04:31:55.651Z,48.60
2018-05-04T04:34:22.556Z,48.60
2018-05-04T04:36:48.702Z,48.20
2018-05-04T04:39:14.862Z,48.70
2018-05-04T04:41:41.031Z,48.40
2018-05-04T04:44:07.166Z,48.50
2018-05-04T04:46:33.314Z,48.60
2018-05-04T04:48:59.455Z,48.70
2018-05-04T04:51:25.634Z,48.80
2018-05-04T04:53:52.547Z,49.00
2018-05-04T04:56:18.686Z,48.90
2018-05-04T04:58:44.850Z,49.10
2018-05-04T05:01:11.003Z,48.90
2018-05-04T05:03:37.151Z,49.30
2018-05-04T05:06:03.376Z,49.10
2018-05-04T05:08:29.570Z,49.20
2018-05-04T05:10:55.740Z,49.40
2018-05-04T05:13:21.899Z,47.60
2018-05-04T05:15:48.040Z,50.10
2018-05-04T05:18:14.179Z,49.90
2018-05-04T05:20:40.343Z,49.50
2018-05-04T05:23:06.525Z,49.30
2018-05-04T05:25:32.705Z,49.20
2018-05-04T05:27:59.611Z,49.10
2018-05-04T05:30:25.802Z,49.00
2018-05-04T05:32:51.968Z,49.10
2018-05-04T05:35:18.134Z,49.30
2018-05-04T05:37:44.291Z,49.30
2018-05-04T05:40:11.179Z,49.30
2018-05-04T05:42:37.381Z,49.40
2018-05-04T05:45:03.563Z,49.40
2018-05-04T05:47:29.767Z,49.40
2018-05-04T05:49:55.911Z,49.10
2018-05-04T05:52:22.052Z,49.40
2018-05-04T05:54:48.225Z,49.50
2018-05-04T05:57:15.113Z,49.60
2018-05-04T05:59:41.265Z,49.60
2018-05-04T06:02:07.422Z,49.60
2018-05-04T06:04:33.572Z,49.30
2018-05-04T06:07:00.474Z,49.10
2018-05-04T06:09:26.688Z,49.00
2018-05-04T06:11:52.821Z,49.40
2018-05-04T06:14:18.990Z,48.50
2018-05-04T06:16:45.163Z,48.20
2018-05-04T06:19:12.062Z,48.80
2018-05-04T06:21:38.217Z,48.80
2018-05-04T06:24:04.410Z,48.80
2018-05-04T06:26:30.599Z,48.40
2018-05-04T06:28:57.544Z,48.80
2018-05-04T06:31:23.702Z,48.50
2018-05-04T06:33:49.931Z,48.50
2018-05-04T06:36:16.854Z,48.20
2018-05-04T06:38:43.069Z,48.20
2018-05-04T06:41:09.238Z,47.90
2018-05-04T06:43:36.146Z,47.90
2018-05-04T06:46:02.314Z,47.70
2018-05-04T06:48:43.499Z,47.40
2018-05-04T06:51:09.712Z,47.30
2018-05-04T06:53:35.886Z,47.60
2018-05-04T06:56:02.070Z,47.00
2018-05-04T06:58:28.239Z,46.70
2018-05-04T07:00:54.458Z,46.80
2018-05-04T07:03:20.660Z,46.80
2018-05-04T07:05:46.881Z,46.50
2018-05-04T07:08:13.034Z,46.10
2018-05-04T07:10:39.212Z,46.20
2018-05-04T07:13:05.395Z,45.80
2018-05-04T07:15:31.564Z,45.90
2018-05-04T07:17:57.776Z,45.60
2018-05-04T07:20:23.951Z,44.40
2018-05-04T07:22:50.152Z,45.30
2018-05-04T07:25:16.319Z,45.70
2018-05-04T07:27:42.525Z,46.40
2018-05-04T07:30:08.696Z,45.70
2018-05-04T07:32:34.836Z,45.60
2018-05-04T07:35:00.999Z,45.70
2018-05-04T07:37:27.168Z,46.00
2018-05-04T07:39:53.344Z,46.30
2018-05-04T07:42:19.495Z,46.20
2018-05-04T07:44:45.657Z,45.60
2018-05-04T07:47:12.533Z,44.40
2018-05-04T07:49:38.750Z,44.50
2018-05-04T07:52:04.919Z,43.70
2018-05-04T07:54:31.101Z,43.10
2018-05-04T07:56:57.266Z,42.00
2018-05-04T07:59:23.445Z,41.30
2018-05-04T08:01:49.591Z,41.90
2018-05-04T08:04:15.747Z,41.50
2018-05-04T08:06:41.943Z,41.00
2018-05-04T08:09:08.846Z,40.50
2018-05-04T08:11:34.994Z,40.20
2018-05-04T08:14:01.151Z,39.60
2018-05-04T08:16:28.822Z,39.10
2018-05-04T08:18:54.977Z,39.00
2018-05-04T08:21:21.137Z,39.20
2018-05-04T08:23:47.299Z,38.40
2018-05-04T08:26:13.450Z,37.90
2018-05-04T08:28:40.359Z,36.90
2018-05-04T08:31:06.537Z,36.80
2018-05-04T08:33:33.443Z,36.30
2018-05-04T08:35:59.636Z,36.30
2018-05-04T08:38:25.851Z,36.10
2018-05-04T08:40:52.108Z,36.20
2018-05-04T08:43:18.146Z,36.10
2018-05-04T08:45:44.287Z,35.10
2018-05-04T08:48:10.436Z,34.60
2018-05-04T08:50:36.609Z,34.50
2018-05-04T08:53:03.528Z,33.90
2018-05-04T08:55:29.749Z,33.80
2018-05-04T08:57:55.945Z,33.70
2018-05-04T09:00:22.139Z,33.00
2018-05-04T09:02:48.283Z,33.50
2018-05-04T09:05:14.540Z,32.80
2018-05-04T09:07:40.667Z,33.10
2018-05-04T09:10:06.854Z,32.60
2018-05-04T09:12:33.780Z,32.50
2018-05-04T09:14:59.944Z,32.40
2018-05-04T09:17:26.096Z,32.50
2018-05-04T09:19:52.351Z,32.30
2018-05-04T09:22:18.462Z,31.80
2018-05-04T09:24:45.375Z,31.00
2018-05-04T09:27:11.533Z,30.80
2018-05-04T09:29:37.708Z,30.50
2018-05-04T09:32:03.904Z,30.20
2018-05-04T09:34:30.674Z,30.00
2018-05-04T09:36:56.875Z,29.10
2018-05-04T09:39:23.141Z,29.80
2018-05-04T09:41:49.279Z,29.60
2018-05-04T09:44:15.454Z,29.40
2018-05-04T09:46:41.631Z,28.80
2018-05-04T09:49:08.581Z,29.10
2018-05-04T09:51:34.704Z,29.00
2018-05-04T09:54:00.890Z,29.20
2018-05-04T09:56:27.158Z,28.90
2018-05-04T09:58:53.286Z,28.70
2018-05-04T10:01:20.221Z,27.10
2018-05-04T10:03:46.419Z,27.10
2018-05-04T10:06:12.681Z,26.60
2018-05-04T10:08:38.836Z,26.50
2018-05-04T10:11:05.009Z,25.40
2018-05-04T10:13:31.170Z,24.80
2018-05-04T10:15:57.379Z,24.80
2018-05-04T10:18:23.607Z,24.80
2018-05-04T10:20:49.775Z,23.20
2018-05-04T10:23:15.979Z,24.10
2018-05-04T10:25:42.138Z,23.60
2018-05-04T10:28:08.331Z,22.80
2018-05-04T10:30:35.214Z,23.00
2018-05-04T10:33:01.459Z,22.90
2018-05-04T10:35:27.633Z,22.60
2018-05-04T10:37:54.511Z,23.50
2018-05-04T10:40:20.668Z,23.50
2018-05-04T10:42:46.827Z,23.50
2018-05-04T10:45:13.045Z,23.20
2018-05-04T10:47:39.199Z,22.00
2018-05-04T10:50:05.364Z,21.30
2018-05-04T10:52:31.525Z,21.40
2018-05-04T10:54:57.680Z,21.60
2018-05-04T10:57:23.862Z,19.80
2018-05-04T10:59:50.045Z,21.20
2018-05-04T11:02:16.241Z,21.50
2018-05-04T11:04:42.428Z,20.60
2018-05-04T11:07:09.352Z,20.50
2018-05-04T11:09:35.526Z,20.50
2018-05-04T11:12:01.720Z,20.10
2018-05-04T11:14:27.864Z,20.40
2018-05-04T11:16:53.994Z,20.70
2018-05-04T11:19:20.186Z,20.40
2018-05-04T11:21:46.336Z,19.20
2018-05-04T11:24:12.488Z,20.10
2018-05-04T11:26:38.643Z,20.00
2018-05-04T11:29:05.557Z,19.30
2018-05-04T11:31:31.808Z,19.30
2018-05-04T11:33:57.950Z,20.40
2018-05-04T11:36:24.123Z,20.10
2018-05-04T11:38:50.356Z,19.90
2018-05-04T11:41:16.489Z,19.60
2018-05-04T11:43:42.651Z,18.80
2018-05-04T11:46:08.827Z,19.40
2018-05-04T11:48:35.723Z,18.90
2018-05-04T11:51:01.896Z,18.90
2018-05-04T11:53:28.079Z,19.30
2018-05-04T11:55:54.227Z,19.60
2018-05-04T11:58:20.392Z,18.50
2018-05-04T12:00:46.544Z,18.60
2018-05-04T12:03:13.440Z,18.00
2018-05-04T12:05:39.619Z,18.00
2018-05-04T12:08:05.777Z,18.50
2018-05-04T12:10:31.938Z,19.00
2018-05-04T12:12:58.124Z,19.30
2018-05-04T12:15:25.043Z,18.40
2018-05-04T12:17:51.218Z,18.40
2018-05-04T12:20:17.415Z,19.10
2018-05-04T12:22:43.626Z,18.00
2018-05-04T12:25:10.470Z,18.30
2018-05-04T12:27:36.732Z,17.10
2018-05-04T12:30:02.907Z,17.60
2018-05-04T12:32:29.091Z,17.20
2018-05-04T12:34:55.284Z,17.60
2018-05-04T12:37:21.431Z,17.20
2018-05-04T12:39:47.643Z,17.60
2018-05-04T12:42:13.797Z,17.70
2018-05-04T12:44:39.926Z,17.50
2018-05-04T12:47:06.194Z,17.50
2018-05-04T12:49:32.570Z,17.20
2018-05-04T12:51:58.901Z,17.40
2018-05-04T12:54:25.060Z,17.50
2018-05-04T12:56:51.296Z,16.80
2018-05-04T12:59:17.457Z,16.20
2018-05-04T13:01:43.615Z,15.60
2018-05-04T13:04:09.762Z,16.40
2018-05-04T13:06:35.907Z,17.20
2018-05-04T13:09:02.181Z,16.70
2018-05-04T13:11:29.110Z,16.90
2018-05-04T13:13:55.281Z,17.00
2018-05-04T13:16:21.448Z,17.30
2018-05-04T13:18:47.611Z,16.60
2018-05-04T13:21:13.795Z,16.00
2018-05-04T13:23:40.678Z,16.80
2018-05-04T13:26:06.859Z,16.80
2018-05-04T13:28:33.077Z,17.10
2018-05-04T13:30:59.239Z,16.30
2018-05-04T13:33:26.145Z,16.10
2018-05-04T13:35:52.361Z,16.10
2018-05-04T13:38:18.520Z,15.40
2018-05-04T13:40:44.685Z,16.20
2018-05-04T13:43:11.616Z,17.20
2018-05-04T13:45:37.787Z,17.20
2018-05-04T13:48:03.939Z,17.00
2018-05-04T13:50:30.101Z,15.60
2018-05-04T13:52:56.292Z,16.70
2018-05-04T13:55:22.467Z,17.10
2018-05-04T13:57:48.657Z,17.30
2018-05-04T14:00:14.841Z,17.40
2018-05-04T14:02:41.022Z,17.30
2018-05-04T14:05:07.236Z,16.70
2018-05-04T14:07:34.140Z,16.80
2018-05-04T14:10:00.294Z,16.70
2018-05-04T14:12:26.469Z,16.70
2018-05-04T14:14:52.695Z,17.50
2018-05-04T14:17:18.866Z,17.50
2018-05-04T14:19:45.068Z,17.50
2018-05-04T14:22:11.276Z,17.40
2018-05-04T14:24:37.496Z,16.30
2018-05-04T14:27:04.493Z,17.10
2018-05-04T14:29:30.687Z,17.10
2018-05-04T14:31:57.588Z,16.70
2018-05-04T14:34:23.788Z,16.70
2018-05-04T14:36:50.049Z,16.80
2018-05-04T14:39:16.231Z,16.70
2018-05-04T14:41:42.445Z,16.60
2018-05-04T14:44:08.627Z,16.90
2018-05-04T14:46:34.861Z,16.30
2018-05-04T14:49:01.013Z,16.80
2018-05-04T14:51:27.213Z,16.20
2018-05-04T14:53:53.355Z,16.40
2018-05-04T14:56:19.554Z,15.80
2018-05-04T14:58:45.903Z,16.00
2018-05-04T15:01:12.150Z,15.80
2018-05-04T15:03:38.319Z,15.40
2018-05-04T15:06:04.553Z,15.70
2018-05-04T15:08:30.752Z,16.20
2018-05-04T15:10:57.696Z,16.40
2018-05-04T15:13:24.638Z,16.00
2018-05-04T15:15:50.852Z,15.90
2018-05-04T15:18:17.094Z,15.70
2018-05-04T15:20:43.314Z,15.60
2018-05-04T15:23:09.553Z,15.60
2018-05-04T15:25:35.696Z,14.80
2018-05-04T15:28:01.871Z,14.70
2018-05-04T15:30:28.052Z,15.30
2018-05-04T15:32:54.220Z,16.00
2018-05-04T15:35:20.408Z,16.10
2018-05-04T15:37:46.590Z,15.90
2018-05-04T15:40:12.799Z,16.50
2018-05-04T15:42:39.712Z,16.90
2018-05-04T15:45:05.930Z,16.20
2018-05-04T15:47:32.137Z,16.50
2018-05-04T15:52:56.473Z,16.30
2018-05-04T15:55:22.727Z,16.70
2018-05-04T15:57:48.970Z,17.20
2018-05-04T16:00:15.182Z,16.90
2018-05-04T16:02:42.111Z,16.30
2018-05-04T16:05:08.293Z,16.30
2018-05-04T16:07:34.482Z,16.50
2018-05-04T16:10:00.748Z,16.90
2018-05-04T16:12:26.934Z,16.80
2018-05-04T16:14:53.129Z,17.40
2018-05-04T16:17:19.309Z,17.10
2018-05-04T16:19:45.486Z,17.00
2018-05-04T16:22:11.679Z,16.90
2018-05-04T16:24:37.849Z,16.00
2018-05-04T16:27:04.058Z,17.40
2018-05-04T16:29:30.269Z,17.10
2018-05-04T16:31:56.500Z,17.20
2018-05-04T16:34:22.751Z,17.70
2018-05-04T16:36:48.916Z,18.00
2018-05-04T16:39:15.894Z,18.10
2018-05-04T16:41:42.928Z,18.20
2018-05-04T16:44:09.031Z,18.10
2018-05-04T16:46:41.469Z,18.20
2018-05-04T16:49:26.612Z,18.00
2018-05-04T16:51:52.825Z,18.00
2018-05-04T16:54:19.027Z,17.60
2018-05-04T16:56:45.250Z,17.90
2018-05-04T16:59:11.433Z,18.10
2018-05-04T17:01:37.645Z,18.30
2018-05-04T17:04:03.841Z,18.40
2018-05-04T17:06:29.994Z,18.70
2018-05-04T17:08:56.193Z,18.80
2018-05-04T17:11:22.465Z,19.00
2018-05-04T17:13:48.559Z,19.10
2018-05-04T17:16:14.744Z,19.00
2018-05-04T17:18:40.898Z,19.90
2018-05-04T17:21:07.084Z,20.00
2018-05-04T17:23:33.267Z,20.00
2018-05-04T17:26:00.188Z,20.20
2018-05-04T17:28:26.373Z,20.20
2018-05-04T17:30:52.639Z,20.00
2018-05-04T17:33:18.830Z,20.20
2018-05-04T17:35:44.983Z,20.10
2018-05-04T17:38:11.172Z,20.10
2018-05-04T17:40:37.352Z,20.40
2018-05-04T17:43:03.588Z,20.60
2018-05-04T17:45:29.671Z,20.70
2018-05-04T17:47:55.830Z,20.40
2018-05-04T17:50:22.004Z,20.40
2018-05-04T17:52:48.162Z,19.50
2018-05-04T17:55:14.311Z,20.60
2018-05-04T17:57:40.462Z,20.70
2018-05-04T18:00:06.690Z,20.80
2018-05-04T18:02:32.858Z,21.00
2018-05-04T18:11:40.939Z,21.30
2018-05-04T18:14:07.121Z,21.90
2018-05-04T18:16:33.347Z,21.90
2018-05-04T18:18:59.556Z,22.60
2018-05-04T18:21:40.671Z,22.10
2018-05-04T18:24:06.851Z,22.40
2018-05-04T18:26:33.061Z,22.60
2018-05-04T18:28:59.215Z,22.90
2018-05-04T18:31:26.132Z,23.00
2018-05-04T18:33:53.007Z,23.20
2018-05-04T18:36:19.178Z,23.10
2018-05-04T18:38:45.415Z,23.30
2018-05-04T18:41:11.593Z,23.40
2018-05-04T18:43:37.823Z,23.60
2018-05-04T18:46:04.003Z,23.90
2018-05-04T18:48:30.220Z,24.00
2018-05-04T18:50:56.400Z,24.00
2018-05-04T18:53:22.566Z,24.10
2018-05-04T18:55:48.808Z,24.10
2018-05-04T18:58:15.020Z,24.60
2018-05-04T19:00:41.210Z,25.20
2018-05-04T19:03:13.490Z,24.10
2018-05-04T19:05:39.642Z,25.90
2018-05-04T19:08:05.955Z,26.10
2018-05-04T19:10:32.061Z,26.50
2018-05-04T19:12:58.242Z,26.90
2018-05-04T19:15:24.447Z,27.20
2018-05-04T19:17:50.660Z,27.50
2018-05-04T19:20:16.905Z,27.60
2018-05-04T19:22:43.074Z,28.00
2018-05-04T19:25:09.990Z,28.50
2018-05-04T19:27:36.187Z,28.50
2018-05-04T19:30:02.362Z,28.70
2018-05-04T19:32:28.518Z,28.80
2018-05-04T19:34:54.714Z,28.90
2018-05-04T19:37:20.926Z,29.20
2018-05-04T19:39:47.150Z,29.10
2018-05-04T19:42:13.322Z,29.30
2018-05-04T19:44:39.510Z,29.40
2018-05-04T19:47:05.719Z,29.80
2018-05-04T19:49:32.018Z,30.00
2018-05-04T19:51:58.334Z,29.50
2018-05-04T19:54:24.552Z,30.30
2018-05-04T19:56:51.100Z,30.60
2018-05-04T19:59:17.400Z,30.90
2018-05-04T20:01:44.379Z,31.00
2018-05-04T20:04:10.636Z,31.80
2018-05-04T20:06:36.903Z,31.20
2018-05-04T20:09:03.104Z,31.20
2018-05-04T20:11:29.288Z,31.20
2018-05-04T20:13:56.370Z,31.70
2018-05-04T20:16:22.560Z,31.70
2018-05-04T20:18:48.771Z,31.90
2018-05-04T20:21:14.953Z,32.00
2018-05-04T20:23:41.102Z,32.40
2018-05-04T20:26:07.263Z,32.30
2018-05-04T20:28:33.452Z,32.30
2018-05-04T20:30:59.603Z,31.90
2018-05-04T20:33:26.566Z,32.90
2018-05-04T20:35:52.802Z,32.90
2018-05-04T20:38:18.975Z,33.10
2018-05-04T20:40:45.145Z,33.50
2018-05-04T20:43:11.355Z,33.50
2018-05-04T20:45:37.526Z,33.70
2018-05-04T20:48:03.740Z,34.00
2018-05-04T20:50:29.905Z,34.10
2018-05-04T20:52:56.070Z,34.00
2018-05-04T20:55:22.251Z,34.30
2018-05-04T20:57:48.445Z,34.30
2018-05-04T21:00:14.619Z,34.40
2018-05-04T21:02:40.810Z,34.40
2018-05-04T21:05:07.733Z,34.50
2018-05-04T21:07:33.904Z,34.50
2018-05-04T21:10:00.111Z,34.50
2018-05-04T21:12:26.314Z,34.60
2018-05-04T21:14:52.466Z,34.70
2018-05-04T21:17:18.635Z,34.40
2018-05-04T21:19:44.806Z,34.60
2018-05-04T21:22:10.973Z,35.40
2018-05-04T21:24:37.125Z,34.60
2018-05-04T21:27:03.438Z,35.30
2018-05-04T21:29:29.602Z,34.00
2018-05-04T21:31:55.758Z,35.70
2018-05-04T21:34:21.911Z,35.80
2018-05-04T21:36:48.120Z,35.80
2018-05-04T21:39:14.375Z,35.90
2018-05-04T21:41:40.526Z,35.80
2018-05-04T21:44:06.697Z,36.10
2018-05-04T21:46:33.071Z,36.60
2018-05-04T21:48:59.290Z,37.10
2018-05-04T21:51:25.466Z,37.60
2018-05-04T21:53:51.630Z,37.90
2018-05-04T21:56:17.781Z,38.20
2018-05-04T21:58:43.938Z,38.70
2018-05-04T22:01:10.097Z,39.20
2018-05-04T22:03:36.253Z,38.10
2018-05-04T22:06:02.513Z,39.70
2018-05-04T22:08:28.770Z,40.20
2018-05-04T22:10:54.983Z,40.70
2018-05-04T22:13:21.216Z,41.20
2018-05-04T22:15:47.420Z,41.60
2018-05-04T22:18:14.338Z,42.70
2018-05-04T22:20:40.514Z,42.70
2018-05-04T22:23:06.719Z,42.80
2018-05-04T22:25:32.942Z,42.80
2018-05-04T22:27:59.839Z,42.70
2018-05-04T22:30:26.099Z,42.60
2018-05-04T22:32:52.296Z,42.70
2018-05-04T22:35:18.498Z,42.80
2018-05-04T22:37:44.662Z,43.00
2018-05-04T22:40:10.837Z,43.20
2018-05-04T22:42:37.093Z,43.20
2018-05-04T22:45:03.314Z,43.20
2018-05-04T22:47:29.530Z,43.40
2018-05-04T22:49:55.759Z,43.60
2018-05-04T22:52:21.942Z,43.80
2018-05-04T22:54:48.900Z,43.80
2018-05-04T22:57:15.073Z,43.70
2018-05-04T22:59:41.278Z,43.80
2018-05-04T23:02:08.156Z,43.50
2018-05-04T23:04:34.355Z,43.50
2018-05-04T23:07:00.557Z,43.90
2018-05-04T23:09:26.712Z,43.90
2018-05-04T23:11:53.619Z,43.90
2018-05-04T23:14:19.784Z,43.90
2018-05-04T23:16:46.041Z,43.60
2018-05-04T23:19:12.979Z,44.00
2018-05-04T23:21:39.891Z,44.40
2018-05-04T23:24:06.077Z,44.40
2018-05-04T23:26:32.233Z,44.50
2018-05-04T23:28:58.395Z,44.20
2018-05-04T23:31:24.580Z,42.60
2018-05-04T23:33:51.504Z,44.70
2018-05-04T23:36:18.432Z,44.90
2018-05-04T23:38:44.671Z,44.90
2018-05-04T23:41:10.839Z,45.20
2018-05-04T23:43:37.011Z,45.30
2018-05-04T23:46:03.173Z,45.30
2018-05-04T23:48:29.453Z,45.30
2018-05-04T23:50:55.646Z,45.30
2018-05-04T23:53:21.834Z,45.40
2018-05-04T23:55:48.032Z,45.10
2018-05-04T23:58:14.213Z,44.80
